الصفحة الرئيسية
METAR-TAF:

METAR-TAF

مطار :

Odessa-Schlemeyer Field

أوديسا, تكساس, الولايات المتحدة

دائرة عرض: 31-55-17N, خط طول: 102-23-30W, ارتفاع: 914 متر

مراقبة الطقس الحالي

تاريخ ووقت الإصدار 27 دقيقة قبل الساعة 21:53UTC
ريح 9 عقدة من الجنوب/الجنوب الشرقي تتزايد حتى 17 عقدة
درجة الحرارة 17°درجة مئوية
الرطوبة 25%
ضغط 1022 hPa
الرؤية: 16.1 كم
سماء صافية

METAR: KODO 182153Z AUTO 15009G17KT 10SM CLR 17/M03 A3019 RMK AO2 SLP205 T01721033 $

زمن: 17:20 (22:20 UTC)


TAF: مفقودة

أرصاد الطقس والتوقعات من أكثر من 4000 مطار (تقارير الطقس للمطار METAR والتنبؤ بالطقس بالمطارTAF).

المحطات المتاحة هي النقط الصفراء والحمراء على الخريطة.

حرك المؤشر فوق النقطة لمعرفة اسم المحطة.

ثم انقر لمعرفة أرصاد وتوقعات الطقس.

لتغيير الخارطة: اضغط على الأزرار الخضراء مع رمز الصليب الأسود للتكبير. على الزر الأخضر مع شرطة للتصغير، أو على الأسهم الخضراء للخرائط المجاورة.


METAR-TAF: